Time;durP1;ratioP1;P1;durP2;ratioP2;P2;SDS_P1;SDS_P2;PMS_P1;PMS_P2;Temp;Humidity;BMP_temperature;BMP_pressure;BME280_temperature;BME280_humidity;BME280_pressure;Samples;Min_cycle;Max_cycle;Signal;HPM_P1;HPM_P2
2022/04/17 00:00:00;;;;;;;4.10;3.70;;;5.40;87.80;;;;;;5030084;28;21008;-70
2022/04/17 00:02:27;;;;;;;3.40;3.10;;;5.40;87.70;;;;;;5030847;28;20201;-70
2022/04/17 00:04:54;;;;;;;3.83;3.53;;;5.40;87.30;;;;;;5030540;28;20213;-70
2022/04/17 00:07:20;;;;;;;3.60;3.30;;;5.40;87.30;;;;;;5030626;28;20221;-70
2022/04/17 00:09:48;;;;;;;3.75;3.05;;;5.40;88.20;;;;;;5029976;28;20651;-70
2022/04/17 00:12:15;;;;;;;3.90;3.50;;;5.40;88.30;;;;;;5030589;28;20218;-70
2022/04/17 00:14:43;;;;;;;3.72;3.10;;;5.30;88.20;;;;;;5030470;28;20593;-70
2022/04/17 00:17:11;;;;;;;4.85;3.72;;;5.30;88.30;;;;;;5030512;28;20252;-70
2022/04/17 00:19:38;;;;;;;5.32;3.22;;;5.30;88.60;;;;;;5029906;28;20205;-70
2022/04/17 00:22:05;;;;;;;3.13;2.83;;;5.30;88.50;;;;;;5030740;28;20209;-70
2022/04/17 00:24:31;;;;;;;3.58;3.22;;;5.30;88.10;;;;;;5030413;28;20198;-70
2022/04/17 00:27:00;;;;;;;3.53;2.95;;;5.20;88.90;;;;;;5030130;28;20226;-70
2022/04/17 00:29:27;;;;;;;3.90;3.50;;;5.20;89.60;;;;;;5029794;28;20209;-70
2022/04/17 00:31:53;;;;;;;4.13;3.80;;;5.20;89.90;;;;;;5030277;28;20264;-70
2022/04/17 00:34:20;;;;;;;5.93;3.42;;;5.20;89.30;;;;;;5030303;28;20217;-70
2022/04/17 00:36:47;;;;;;;3.60;3.28;;;5.10;89.90;;;;;;5030208;28;20228;-70
2022/04/17 00:39:14;;;;;;;5.15;4.07;;;5.10;89.50;;;;;;5029769;28;20209;-70
2022/04/17 00:41:41;;;;;;;3.45;3.15;;;5.10;90.00;;;;;;5030183;28;20198;-70
2022/04/17 00:44:12;;;;;;;4.82;3.45;;;5.00;90.70;;;;;;5030263;28;20205;-70
2022/04/17 00:46:39;;;;;;;3.53;3.05;;;4.90;91.40;;;;;;5030090;28;20229;-70
2022/04/17 00:49:06;;;;;;;3.88;3.35;;;4.80;91.30;;;;;;5029752;28;20224;-70
2022/04/17 00:51:34;;;;;;;3.55;3.25;;;4.70;91.40;;;;;;5030386;28;20213;-70
2022/04/17 00:54:02;;;;;;;4.85;3.85;;;4.60;91.50;;;;;;5030009;28;20337;-70
2022/04/17 00:56:31;;;;;;;4.53;3.60;;;4.50;91.70;;;;;;5030217;28;20225;-70
2022/04/17 00:58:58;;;;;;;4.53;3.70;;;4.40;91.90;;;;;;5029521;28;20245;-70
2022/04/17 01:01:30;;;;;;;4.55;3.60;;;4.30;91.90;;;;;;5033015;28;20703;-70
2022/04/17 01:03:57;;;;;;;4.20;3.10;;;4.20;92.00;;;;;;5033721;28;20206;-70
2022/04/17 01:06:23;;;;;;;5.63;3.55;;;4.20;92.00;;;;;;5033631;28;20256;-70
2022/04/17 01:08:50;;;;;;;4.25;3.53;;;4.10;92.10;;;;;;5033080;28;20213;-70
2022/04/17 01:11:17;;;;;;;4.18;3.67;;;4.10;92.30;;;;;;5033651;28;20695;-70
2022/04/17 01:13:44;;;;;;;3.65;3.10;;;4.00;92.50;;;;;;5033520;28;20232;-70
2022/04/17 01:16:16;;;;;;;3.92;3.50;;;3.90;92.80;;;;;;5033559;28;20584;-70
2022/04/17 01:19:00;;;;;;;3.60;3.30;;;3.90;92.60;;;;;;5032916;28;20704;-70
2022/04/17 01:21:29;;;;;;;4.50;3.83;;;3.80;92.60;;;;;;5033707;28;20209;-70
2022/04/17 01:26:58;;;;;;;4.13;3.35;;;3.70;92.80;;;;;;5033148;28;20336;-70
2022/04/17 01:29:26;;;;;;;4.00;3.42;;;3.60;92.90;;;;;;5032616;28;20240;-70
2022/04/17 01:31:53;;;;;;;5.30;3.70;;;3.60;93.10;;;;;;5033213;28;20201;-70
2022/04/17 01:34:21;;;;;;;4.05;3.42;;;3.60;92.90;;;;;;5033109;28;20213;-70
2022/04/17 01:36:49;;;;;;;5.75;3.90;;;3.60;92.80;;;;;;5033027;28;20287;-70
2022/04/17 01:39:17;;;;;;;4.82;3.45;;;3.50;93.00;;;;;;5032481;28;20237;-70
2022/04/17 01:41:44;;;;;;;5.40;3.65;;;3.50;93.20;;;;;;5032895;28;20700;-70
2022/04/17 01:44:11;;;;;;;4.35;3.92;;;3.40;93.40;;;;;;5033122;28;20198;-70
2022/04/17 01:46:38;;;;;;;5.15;3.88;;;3.30;93.70;;;;;;5033030;28;20333;-70
2022/04/17 01:49:04;;;;;;;3.80;3.45;;;3.30;93.50;;;;;;5032686;28;20293;-70
2022/04/17 01:51:37;;;;;;;4.00;3.58;;;3.20;93.80;;;;;;5032972;28;20236;-70
2022/04/17 01:54:05;;;;;;;3.88;3.30;;;3.20;93.80;;;;;;5032867;28;20209;-70
2022/04/17 01:56:32;;;;;;;4.70;3.33;;;3.10;93.90;;;;;;5032764;28;20218;-70
2022/04/17 01:58:59;;;;;;;4.13;3.53;;;3.10;94.30;;;;;;5032149;28;20213;-70
2022/04/17 02:01:25;;;;;;;3.97;3.65;;;3.10;94.30;;;;;;5032637;28;20236;-70
2022/04/17 02:03:52;;;;;;;3.97;3.60;;;3.00;94.00;;;;;;5032510;28;20206;-70
2022/04/17 02:06:18;;;;;;;4.85;3.47;;;3.00;93.90;;;;;;5032580;28;20614;-70
2022/04/17 02:08:45;;;;;;;5.72;3.65;;;2.90;94.10;;;;;;5031992;28;20669;-70
2022/04/17 02:11:13;;;;;;;4.13;3.33;;;2.90;94.20;;;;;;5032361;28;20206;-70
2022/04/17 02:13:41;;;;;;;4.60;3.60;;;2.80;94.50;;;;;;5032510;28;20248;-70
2022/04/17 02:16:08;;;;;;;4.25;3.60;;;2.90;94.80;;;;;;5032320;28;20225;-70
2022/04/17 02:18:34;;;;;;;4.07;3.22;;;2.90;95.00;;;;;;5032220;28;20677;-70
2022/04/17 02:21:01;;;;;;;6.82;4.22;;;2.80;94.60;;;;;;5032879;28;20206;-70
2022/04/17 02:23:28;;;;;;;3.60;3.30;;;2.80;94.70;;;;;;5033296;28;20201;-69
2022/04/17 02:25:55;;;;;;;5.10;3.55;;;2.80;94.70;;;;;;5054067;22;20316;-71
2022/04/17 02:28:23;;;;;;;4.70;3.70;;;2.80;95.00;;;;;;5050763;28;20197;-73
2022/04/17 02:30:49;;;;;;;6.40;3.60;;;2.70;95.00;;;;;;5052113;28;20205;-74
2022/04/17 02:33:17;;;;;;;7.05;4.28;;;2.70;95.00;;;;;;5052077;28;20621;-73
2022/04/17 02:35:43;;;;;;;5.15;3.97;;;2.70;95.10;;;;;;5052074;28;20328;-72
2022/04/17 02:38:10;;;;;;;4.53;3.72;;;2.70;95.20;;;;;;5051205;28;20201;-73
2022/04/17 02:40:37;;;;;;;5.05;4.32;;;2.60;95.20;;;;;;5052059;28;20197;-73
2022/04/17 02:43:04;;;;;;;4.35;3.75;;;2.50;95.30;;;;;;5051883;28;20235;-73
2022/04/17 02:45:32;;;;;;;7.25;4.00;;;2.50;95.50;;;;;;5051823;28;20197;-73
2022/04/17 02:47:59;;;;;;;4.55;4.15;;;2.50;95.60;;;;;;5051335;28;20230;-73
2022/04/17 02:50:25;;;;;;;5.85;4.15;;;2.40;95.60;;;;;;5051628;28;20201;-72
2022/04/17 02:52:55;;;;;;;4.15;3.75;;;2.40;95.80;;;;;;5051926;28;20201;-73
2022/04/17 02:55:22;;;;;;;5.30;3.75;;;2.30;95.90;;;;;;5051417;28;20317;-73
2022/04/17 02:57:49;;;;;;;4.40;3.42;;;2.30;95.90;;;;;;5051665;28;20221;-73
2022/04/17 03:00:17;;;;;;;4.25;3.85;;;2.30;96.00;;;;;;5050867;28;20248;-73
2022/04/17 03:05:37;;;;;;;3.95;3.55;;;2.20;96.00;;;;;;5051434;28;20216;-73
2022/04/17 03:08:04;;;;;;;5.05;3.90;;;2.10;96.30;;;;;;5050907;28;20253;-73
2022/04/17 03:10:31;;;;;;;5.00;4.00;;;2.10;96.20;;;;;;5051315;28;20300;-73
2022/04/17 03:12:58;;;;;;;4.57;4.00;;;2.10;96.30;;;;;;5051478;28;20271;-73
2022/04/17 03:15:25;;;;;;;4.30;3.90;;;2.00;96.30;;;;;;5050895;28;20711;-73
2022/04/17 03:17:53;;;;;;;5.43;4.00;;;2.00;96.40;;;;;;5051216;28;20231;-73
2022/04/17 03:20:20;;;;;;;5.00;4.53;;;1.90;96.40;;;;;;5050540;28;20211;-73
2022/04/17 03:22:48;;;;;;;4.07;3.47;;;1.90;96.50;;;;;;5050481;28;20676;-73
2022/04/17 03:25:16;;;;;;;4.65;4.25;;;1.80;96.60;;;;;;5050777;28;20201;-73
2022/04/17 03:27:46;;;;;;;4.50;3.90;;;1.80;96.80;;;;;;5050892;28;20229;-72
2022/04/17 03:30:14;;;;;;;4.78;4.25;;;1.80;96.90;;;;;;5050474;28;20743;-72
2022/04/17 03:32:42;;;;;;;4.55;4.13;;;1.80;96.90;;;;;;5051182;28;20208;-72
2022/04/17 03:35:10;;;;;;;5.43;4.50;;;1.70;96.90;;;;;;5050778;28;20224;-73
2022/04/17 03:37:37;;;;;;;5.28;4.53;;;1.70;96.90;;;;;;5050757;28;20225;-73
2022/04/17 03:40:05;;;;;;;5.60;4.40;;;1.60;97.10;;;;;;5050402;28;20611;-72
2022/04/17 03:42:32;;;;;;;4.80;4.30;;;1.70;97.30;;;;;;5050723;28;20270;-72
2022/04/17 03:44:59;;;;;;;6.75;4.80;;;1.60;97.10;;;;;;5050897;28;20236;-72
2022/04/17 03:47:25;;;;;;;4.68;4.22;;;1.60;97.10;;;;;;5050526;28;20271;-73
2022/04/17 03:49:52;;;;;;;5.13;4.63;;;1.50;97.30;;;;;;5050238;28;20204;-72
2022/04/17 03:52:20;;;;;;;5.22;4.15;;;1.50;97.40;;;;;;5050386;28;20680;-72
2022/04/17 03:54:47;;;;;;;5.03;4.53;;;1.50;97.50;;;;;;5050577;28;20205;-72
2022/04/17 03:57:14;;;;;;;4.32;4.00;;;1.50;97.40;;;;;;5050429;28;20249;-73
2022/04/17 03:59:40;;;;;;;5.13;4.50;;;1.50;97.80;;;;;;5050687;28;20197;-73
2022/04/17 04:02:07;;;;;;;6.35;4.40;;;1.50;97.70;;;;;;5053531;28;20205;-73
2022/04/17 04:04:34;;;;;;;5.88;4.45;;;1.40;97.80;;;;;;5053391;28;20575;-73
2022/04/17 04:07:01;;;;;;;6.93;5.13;;;1.40;98.00;;;;;;5052462;28;20232;-73
2022/04/17 04:09:29;;;;;;;6.07;4.90;;;1.30;98.10;;;;;;5050098;28;20537;-72
2022/04/17 04:11:56;;;;;;;7.70;4.20;;;1.30;98.20;;;;;;5050701;28;20204;-72
2022/04/17 04:14:22;;;;;;;5.82;4.60;;;1.30;98.20;;;;;;5050194;28;20232;-73
2022/04/17 04:16:49;;;;;;;5.70;4.75;;;1.20;98.50;;;;;;5050219;28;20229;-72
2022/04/17 04:19:16;;;;;;;4.93;4.40;;;1.20;98.50;;;;;;5049510;28;20208;-73
2022/04/17 04:21:48;;;;;;;4.95;4.47;;;1.30;98.50;;;;;;5050467;28;20211;-73
2022/04/17 04:24:15;;;;;;;5.22;4.72;;;1.20;98.40;;;;;;5050145;28;20201;-73
2022/04/17 04:26:44;;;;;;;7.70;4.70;;;1.20;98.70;;;;;;5050226;28;20232;-72
2022/04/17 04:29:10;;;;;;;5.15;4.63;;;1.20;98.70;;;;;;5049687;28;20232;-72
2022/04/17 04:31:37;;;;;;;4.30;3.90;;;1.20;98.90;;;;;;5050297;28;20254;-72
2022/04/17 04:34:04;;;;;;;4.95;4.40;;;1.10;98.80;;;;;;5051298;28;20668;-73
2022/04/17 04:36:31;;;;;;;4.85;4.10;;;1.10;98.80;;;;;;5053910;28;20232;-72
2022/04/17 04:38:57;;;;;;;4.60;4.20;;;1.00;99.00;;;;;;5054055;28;20205;-73
2022/04/17 04:41:24;;;;;;;4.38;3.97;;;1.00;99.00;;;;;;5054125;28;20197;-72
2022/04/17 04:43:52;;;;;;;5.35;4.32;;;1.00;99.20;;;;;;5054324;28;20212;-73
2022/04/17 04:46:19;;;;;;;7.00;4.68;;;1.00;99.30;;;;;;5053925;28;20723;-73
2022/04/17 04:51:30;;;;;;;5.90;5.00;;;1.00;99.40;;;;;;5054068;28;20211;-73
2022/04/17 04:53:57;;;;;;;5.80;4.50;;;1.00;99.30;;;;;;5054079;28;20202;-72
2022/04/17 04:56:25;;;;;;;7.07;5.20;;;1.10;99.20;;;;;;5053523;28;20595;-72
2022/04/17 04:58:53;;;;;;;6.72;4.60;;;1.10;99.20;;;;;;5053390;28;20614;-72
2022/04/17 05:01:20;;;;;;;5.45;4.60;;;1.20;99.30;;;;;;5053668;28;20205;-72
2022/04/17 05:03:47;;;;;;;5.40;4.72;;;1.20;99.30;;;;;;5053828;28;20205;-72
2022/04/17 05:06:13;;;;;;;5.13;4.68;;;1.20;99.50;;;;;;5053682;28;20217;-73
2022/04/17 05:08:40;;;;;;;8.13;4.82;;;1.20;99.70;;;;;;5053230;28;20664;-72
2022/04/17 05:11:07;;;;;;;4.85;3.97;;;1.30;99.60;;;;;;5053649;28;20583;-72
2022/04/17 05:13:34;;;;;;;4.50;4.07;;;1.40;99.40;;;;;;5053450;28;20205;-72
2022/04/17 05:16:03;;;;;;;5.88;3.90;;;1.40;99.50;;;;;;5053484;28;20230;-72
2022/04/17 05:18:29;;;;;;;4.60;4.20;;;1.50;99.40;;;;;;5053032;28;20205;-72
2022/04/17 05:20:56;;;;;;;5.18;4.05;;;1.60;99.40;;;;;;5053928;28;20205;-73
2022/04/17 05:23:26;;;;;;;5.07;4.15;;;1.70;99.40;;;;;;5053497;28;20239;-73
2022/04/17 05:25:54;;;;;;;4.30;3.90;;;1.70;99.40;;;;;;5053459;28;20205;-73
2022/04/17 05:28:22;;;;;;;4.35;3.83;;;1.80;99.10;;;;;;5052786;28;20684;-73
2022/04/17 05:30:49;;;;;;;5.03;4.20;;;1.90;98.90;;;;;;5053542;28;20603;-73
2022/04/17 05:33:20;;;;;;;5.95;4.47;;;2.00;98.70;;;;;;5053095;28;20645;-73
2022/04/17 05:35:47;;;;;;;4.28;3.50;;;2.10;98.30;;;;;;5053282;28;20221;-72
2022/04/17 05:38:14;;;;;;;4.50;4.03;;;2.20;97.80;;;;;;5052381;28;20209;-72
2022/04/17 05:40:43;;;;;;;4.10;3.70;;;2.30;97.70;;;;;;5053213;28;20205;-73
2022/04/17 05:43:10;;;;;;;4.85;3.50;;;2.50;97.10;;;;;;5052922;28;20573;-72
2022/04/17 05:45:38;;;;;;;3.70;3.30;;;2.70;97.20;;;;;;5052309;28;20208;-73
2022/04/17 05:48:06;;;;;;;3.45;3.15;;;2.80;96.90;;;;;;5052442;28;20636;-73
2022/04/17 05:50:34;;;;;;;4.32;3.65;;;3.00;96.40;;;;;;5052714;28;20208;-73
2022/04/17 05:53:01;;;;;;;5.25;2.92;;;3.20;95.90;;;;;;5052939;28;20204;-73
2022/04/17 05:55:28;;;;;;;4.18;3.22;;;3.40;95.20;;;;;;5052530;28;20216;-72
2022/04/17 05:57:55;;;;;;;5.47;3.92;;;3.60;94.70;;;;;;5052719;28;20608;-73
2022/04/17 06:00:22;;;;;;;4.18;3.75;;;3.80;94.20;;;;;;5052266;28;20201;-72
2022/04/17 06:02:49;;;;;;;3.88;3.45;;;4.00;93.90;;;;;;5052871;28;20197;-73
2022/04/17 06:05:17;;;;;;;7.13;5.75;;;4.10;93.70;;;;;;5052330;28;20258;-73
2022/04/17 06:07:45;;;;;;;5.40;3.78;;;4.20;93.50;;;;;;5052572;28;20225;-72
2022/04/17 06:10:15;;;;;;;4.05;3.65;;;4.40;93.60;;;;;;5051808;28;20205;-72
2022/04/17 06:12:42;;;;;;;3.88;3.00;;;4.50;93.00;;;;;;5052432;28;20684;-72
2022/04/17 06:15:10;;;;;;;4.22;3.05;;;4.60;93.10;;;;;;5052259;28;20247;-72
2022/04/17 06:17:38;;;;;;;3.70;3.40;;;4.70;93.10;;;;;;5051533;28;20455;-71
2022/04/17 06:20:06;;;;;;;4.32;3.50;;;4.80;92.50;;;;;;5051797;28;20201;-71
2022/04/17 06:22:35;;;;;;;3.58;3.22;;;4.90;92.50;;;;;;5052247;28;20201;-72
2022/04/17 06:25:04;;;;;;;6.53;3.60;;;5.00;93.10;;;;;;5051594;28;20232;-72
2022/04/17 06:27:37;;;;;;;4.40;3.35;;;5.20;92.50;;;;;;5049026;28;20256;-72
2022/04/17 06:30:09;;;;;;;3.63;3.15;;;5.30;92.20;;;;;;5048885;28;20287;-69
2022/04/17 06:32:36;;;;;;;3.60;3.30;;;5.40;92.40;;;;;;5049295;28;20208;-70
2022/04/17 06:35:03;;;;;;;3.53;3.22;;;5.40;91.60;;;;;;5049585;28;20214;-71
2022/04/17 06:37:30;;;;;;;3.67;3.20;;;5.50;91.50;;;;;;5049274;28;20758;-70
2022/04/17 06:39:57;;;;;;;3.67;2.70;;;5.50;91.10;;;;;;5049032;28;20208;-70
2022/04/17 06:42:25;;;;;;;4.63;3.40;;;5.60;91.20;;;;;;5048994;28;20296;-70
2022/04/17 06:44:52;;;;;;;3.60;2.83;;;5.70;90.90;;;;;;5048945;28;20217;-69
2022/04/17 06:47:19;;;;;;;4.20;2.80;;;5.80;91.10;;;;;;5048902;28;20324;-71
2022/04/17 06:49:46;;;;;;;4.85;3.38;;;5.90;91.10;;;;;;5048757;28;20211;-70
2022/04/17 06:52:13;;;;;;;2.88;2.63;;;6.00;90.30;;;;;;5049283;28;20299;-70
2022/04/17 06:54:39;;;;;;;3.50;3.20;;;6.10;91.10;;;;;;5048773;28;20960;-70
2022/04/17 06:57:06;;;;;;;3.92;2.70;;;6.20;91.40;;;;;;5048482;28;20829;-70
2022/04/17 06:59:34;;;;;;;3.38;2.55;;;6.30;90.70;;;;;;5048062;28;20707;-70
2022/04/17 07:02:01;;;;;;;3.33;3.03;;;6.50;90.70;;;;;;5052651;28;20212;-70
2022/04/17 07:04:28;;;;;;;4.05;3.30;;;6.60;89.00;;;;;;5054217;28;20205;-70
2022/04/17 07:06:55;;;;;;;3.58;2.90;;;6.60;88.30;;;;;;5053456;28;20652;-73
2022/04/17 07:09:22;;;;;;;3.00;2.45;;;6.60;88.20;;;;;;5050982;28;20266;-70
2022/04/17 07:11:48;;;;;;;2.63;2.42;;;6.70;89.20;;;;;;5051573;28;20210;-70
2022/04/17 07:14:16;;;;;;;3.28;2.97;;;6.80;89.10;;;;;;5047150;28;20208;-70
2022/04/17 07:16:46;;;;;;;3.67;2.67;;;6.90;87.80;;;;;;5046023;28;20304;-71
2022/04/17 07:19:14;;;;;;;3.60;2.83;;;7.00;87.80;;;;;;5048776;28;20198;-71
2022/04/17 07:21:41;;;;;;;5.25;2.88;;;7.10;88.30;;;;;;5049415;28;20193;-71
2022/04/17 07:24:07;;;;;;;2.88;2.67;;;7.20;87.30;;;;;;5050210;28;20193;-71
2022/04/17 07:26:34;;;;;;;3.45;2.92;;;7.30;88.80;;;;;;5048326;28;20225;-72
2022/04/17 07:29:02;;;;;;;3.03;2.83;;;7.50;87.50;;;;;;5050394;28;20208;-72
2022/04/17 07:31:29;;;;;;;3.85;3.17;;;7.60;87.80;;;;;;5049729;28;20201;-72
2022/04/17 07:33:58;;;;;;;5.00;2.65;;;7.60;84.70;;;;;;5050286;28;20197;-72
2022/04/17 07:36:24;;;;;;;2.90;2.70;;;7.70;83.80;;;;;;5048171;28;20601;-72
2022/04/17 07:38:51;;;;;;;2.97;2.78;;;7.60;84.40;;;;;;5049103;28;20216;-71
2022/04/17 07:41:18;;;;;;;4.32;3.25;;;7.70;86.90;;;;;;5049605;28;20604;-72
2022/04/17 07:43:44;;;;;;;3.25;2.65;;;7.90;86.40;;;;;;5049349;28;20562;-72
2022/04/17 07:46:11;;;;;;;3.22;2.92;;;7.90;83.50;;;;;;5048298;28;20459;-71
2022/04/17 07:48:38;;;;;;;2.72;2.47;;;8.00;83.00;;;;;;5048069;28;20201;-71
2022/04/17 07:51:06;;;;;;;3.85;2.75;;;8.10;84.20;;;;;;5049667;28;20201;-72
2022/04/17 07:53:33;;;;;;;2.47;2.28;;;8.20;84.60;;;;;;5048801;28;20708;-71
2022/04/17 07:55:59;;;;;;;3.90;2.85;;;8.40;84.60;;;;;;5048581;28;20189;-72
2022/04/17 07:58:34;;;;;;;3.80;3.03;;;8.60;84.40;;;;;;5047592;28;20199;-71
2022/04/17 08:01:10;;;;;;;3.17;2.85;;;8.70;81.50;;;;;;5048533;28;20307;-71
2022/04/17 08:03:46;;;;;;;2.47;2.25;;;8.80;79.80;;;;;;5048419;28;20203;-71
2022/04/17 08:06:16;;;;;;;2.63;2.42;;;8.90;81.20;;;;;;5048790;28;20247;-71
2022/04/17 08:08:43;;;;;;;3.17;2.70;;;9.10;81.30;;;;;;5047387;28;20225;-72
2022/04/17 08:11:11;;;;;;;4.45;2.92;;;9.30;80.40;;;;;;5049873;28;20230;-72
2022/04/17 08:13:39;;;;;;;2.90;2.70;;;9.50;81.50;;;;;;5050534;28;20323;-71
2022/04/17 08:16:06;;;;;;;2.92;2.65;;;10.00;81.40;;;;;;5050308;28;20320;-74
2022/04/17 08:18:35;;;;;;;3.10;2.80;;;10.40;80.90;;;;;;5049800;28;20227;-74
2022/04/17 08:21:02;;;;;;;4.68;2.60;;;10.80;77.10;;;;;;5050763;28;20205;-73
2022/04/17 08:23:30;;;;;;;3.35;2.60;;;11.00;76.70;;;;;;5050579;28;20604;-74
2022/04/17 08:28:46;;;;;;;2.97;2.67;;;12.00;75.40;;;;;;5008568;28;20472;-71
2022/04/17 08:31:13;;;;;;;3.03;2.33;;;12.00;72.50;;;;;;4986296;28;20211;-73
2022/04/17 08:33:39;;;;;;;3.50;2.60;;;12.10;76.10;;;;;;4990999;28;20516;-73
2022/04/17 08:36:08;;;;;;;2.70;2.50;;;12.60;74.10;;;;;;4990766;28;20490;-73
2022/04/17 08:38:36;;;;;;;2.27;1.87;;;13.00;72.70;;;;;;4990665;28;21001;-72
2022/04/17 08:41:05;;;;;;;2.73;2.30;;;13.20;67.80;;;;;;4990949;28;20470;-72
2022/04/17 08:43:32;;;;;;;3.67;2.30;;;13.00;67.30;;;;;;4991135;28;20833;-73
2022/04/17 08:45:59;;;;;;;11.93;2.47;;;13.20;71.20;;;;;;4990671;28;20988;-74
2022/04/17 08:48:27;;;;;;;2.57;2.23;;;13.70;69.80;;;;;;4990887;28;20458;-74
2022/04/17 08:50:56;;;;;;;2.73;2.53;;;14.30;66.80;;;;;;4991183;28;20466;-73
2022/04/17 08:53:23;;;;;;;3.00;2.60;;;14.60;65.00;;;;;;4990772;28;20458;-71
2022/04/17 08:55:52;;;;;;;2.40;2.20;;;14.50;67.80;;;;;;4990376;28;20454;-71
2022/04/17 08:58:19;;;;;;;3.33;3.03;;;14.60;66.30;;;;;;4990528;28;20494;-71
2022/04/17 09:00:45;;;;;;;4.07;2.37;;;14.60;67.10;;;;;;4990747;28;20466;-72
2022/04/17 09:03:13;;;;;;;2.70;2.40;;;15.20;69.00;;;;;;4990889;28;20462;-73
2022/04/17 09:05:40;;;;;;;2.50;2.30;;;15.90;65.90;;;;;;5003259;28;20883;-73
2022/04/17 09:08:15;;;;;;;2.13;1.90;;;16.20;65.80;;;;;;5007513;28;20567;-73
2022/04/17 09:10:42;;;;;;;2.20;2.00;;;16.60;63.20;;;;;;5008175;28;20840;-72
2022/04/17 09:13:10;;;;;;;3.00;2.40;;;16.40;61.80;;;;;;5008369;28;20823;-73
2022/04/17 09:15:38;;;;;;;2.93;2.00;;;16.10;59.30;;;;;;5008509;28;20469;-73
2022/04/17 09:18:07;;;;;;;3.70;2.30;;;15.50;61.50;;;;;;5007537;28;20500;-73
2022/04/17 09:20:34;;;;;;;3.00;2.30;;;15.90;62.40;;;;;;5008135;28;20500;-73
2022/04/17 09:23:02;;;;;;;2.53;2.00;;;16.20;62.00;;;;;;5011504;28;20465;-73
2022/04/17 09:25:29;;;;;;;3.83;2.30;;;16.30;61.00;;;;;;5011898;28;20481;-72
2022/04/17 09:28:01;;;;;;;4.37;2.90;;;16.70;62.20;;;;;;5011674;28;20492;-73
2022/04/17 09:30:32;;;;;;;3.30;2.60;;;17.50;57.90;;;;;;5012045;28;20454;-73
2022/04/17 09:33:03;;;;;;;2.90;2.30;;;17.60;57.70;;;;;;5012255;28;20476;-72
2022/04/17 09:35:29;;;;;;;5.63;1.90;;;16.90;57.60;;;;;;5012123;28;20464;-73
2022/04/17 09:37:58;;;;;;;3.50;2.10;;;16.90;59.50;;;;;;5011822;28;20496;-73
2022/04/17 09:40:27;;;;;;;2.83;2.10;;;16.90;57.40;;;;;;5011916;28;20468;-73
2022/04/17 09:43:09;;;;;;;2.87;2.30;;;17.00;58.90;;;;;;5011415;28;20893;-73
2022/04/17 09:45:57;;;;;;;2.83;2.00;;;17.60;59.00;;;;;;5011241;28;20468;-73
2022/04/17 09:48:23;;;;;;;1.97;1.80;;;18.20;55.90;;;;;;5010996;28;20544;-73
2022/04/17 09:50:50;;;;;;;3.73;2.13;;;18.20;57.30;;;;;;5010952;28;20465;-73
2022/04/17 09:53:30;;;;;;;1.97;1.87;;;18.40;57.50;;;;;;5011584;28;20856;-73
2022/04/17 09:56:05;;;;;;;2.37;2.20;;;18.70;57.20;;;;;;5009074;28;20468;-73
2022/04/17 09:58:34;;;;;;;2.43;1.90;;;19.30;58.20;;;;;;5009651;28;20484;-73
2022/04/17 10:01:03;;;;;;;2.87;2.13;;;19.80;57.50;;;;;;5009936;28;20864;-73
2022/04/17 10:03:30;;;;;;;2.17;1.90;;;20.20;57.70;;;;;;5009643;28;20466;-72
2022/04/17 10:05:57;;;;;;;2.93;2.30;;;20.50;58.20;;;;;;5009269;28;20466;-72
2022/04/17 10:08:26;;;;;;;2.73;2.13;;;20.40;55.10;;;;;;5009222;28;20970;-74
2022/04/17 10:10:53;;;;;;;3.07;2.40;;;20.20;56.20;;;;;;5009712;28;20504;-72
2022/04/17 10:13:21;;;;;;;3.23;2.00;;;20.20;56.10;;;;;;5009799;28;20493;-74
2022/04/17 10:15:48;;;;;;;2.37;2.17;;;19.90;58.50;;;;;;5008974;28;20553;-74
2022/04/17 10:18:20;;;;;;;2.40;2.20;;;19.80;56.20;;;;;;5009670;28;20853;-74
2022/04/17 10:20:47;;;;;;;2.57;2.20;;;19.50;59.20;;;;;;5009366;28;20842;-73
2022/04/17 10:23:16;;;;;;;3.93;2.00;;;20.20;57.80;;;;;;5011105;28;20461;-74
2022/04/17 10:25:46;;;;;;;2.00;1.90;;;20.60;53.60;;;;;;5012159;28;20810;-71
2022/04/17 10:28:14;;;;;;;2.23;1.80;;;20.60;56.00;;;;;;5010964;28;20465;-71
2022/04/17 10:30:57;;;;;;;1.93;1.80;;;20.90;54.50;;;;;;5012455;28;20972;-73
2022/04/17 10:33:50;;;;;;;2.40;1.87;;;21.60;57.60;;;;;;5012379;28;20535;-73
2022/04/17 10:36:42;;;;;;;2.13;1.93;;;21.90;53.00;;;;;;5012682;28;20543;-73
2022/04/17 10:39:15;;;;;;;2.20;2.00;;;20.80;54.50;;;;;;5011948;28;20949;-73
2022/04/17 10:41:42;;;;;;;2.90;1.90;;;20.80;56.60;;;;;;5012252;28;20461;-73
2022/04/17 10:44:11;;;;;;;1.87;1.77;;;21.10;55.70;;;;;;5012263;28;20465;-73
2022/04/17 10:46:47;;;;;;;2.50;2.30;;;21.50;54.30;;;;;;5012386;28;20485;-73
2022/04/17 10:49:18;;;;;;;2.17;1.97;;;21.30;53.40;;;;;;5011882;28;20627;-73
2022/04/17 10:51:51;;;;;;;2.07;1.80;;;20.70;53.10;;;;;;5012408;28;20476;-73
2022/04/17 10:54:18;;;;;;;2.27;2.07;;;20.90;56.10;;;;;;5012260;28;20462;-73
2022/04/17 10:57:00;;;;;;;2.20;2.00;;;21.40;56.20;;;;;;5011793;28;20480;-73
2022/04/17 10:59:30;;;;;;;4.13;2.13;;;21.90;55.10;;;;;;5011589;28;20461;-73
2022/04/17 11:02:02;;;;;;;2.17;2.00;;;22.60;56.70;;;;;;5012115;28;20468;-73
2022/04/17 11:04:31;;;;;;;2.30;2.10;;;22.90;53.50;;;;;;5012024;28;20881;-73
2022/04/17 11:07:26;;;;;;;2.20;1.97;;;23.60;53.80;;;;;;5011460;28;20485;-74
2022/04/17 11:10:18;;;;;;;2.97;2.07;;;23.90;56.40;;;;;;5011445;28;20461;-74
2022/04/17 11:12:52;;;;;;;2.73;1.83;;;24.60;55.20;;;;;;5011726;28;20489;-73
2022/04/17 11:15:29;;;;;;;2.83;2.40;;;25.30;54.00;;;;;;5011781;28;20472;-74
2022/04/17 11:17:59;;;;;;;2.40;2.20;;;25.30;53.60;;;;;;5011455;28;20547;-73
2022/04/17 11:20:30;;;;;;;2.00;1.70;;;25.20;50.90;;;;;;5011814;28;20850;-73
2022/04/17 11:22:58;;;;;;;2.10;1.90;;;24.60;50.80;;;;;;5011479;28;20962;-73
2022/04/17 11:25:29;;;;;;;2.40;1.70;;;24.00;47.90;;;;;;5011402;28;20457;-73
2022/04/17 11:27:57;;;;;;;2.97;2.10;;;23.30;51.60;;;;;;5011179;28;21016;-73
2022/04/17 11:30:32;;;;;;;3.53;1.70;;;23.50;51.00;;;;;;5011404;28;20519;-73
2022/04/17 11:33:01;;;;;;;2.40;1.60;;;24.30;53.00;;;;;;5011325;28;20465;-73
2022/04/17 11:35:30;;;;;;;2.57;1.70;;;24.90;53.10;;;;;;5011342;28;20461;-73
2022/04/17 11:38:04;;;;;;;2.20;2.00;;;24.00;51.10;;;;;;5011074;28;20494;-73
2022/04/17 11:40:34;;;;;;;2.57;1.83;;;23.10;52.60;;;;;;5011330;28;20866;-73
2022/04/17 11:43:12;;;;;;;2.20;2.00;;;22.70;51.20;;;;;;5011054;28;20467;-73
2022/04/17 11:45:40;;;;;;;2.27;2.00;;;22.10;51.30;;;;;;5011455;28;20496;-73
2022/04/17 11:48:09;;;;;;;2.50;1.83;;;22.00;51.30;;;;;;5010841;28;20924;-73
2022/04/17 11:50:37;;;;;;;2.83;1.87;;;22.00;52.90;;;;;;5011271;28;21054;-73
2022/04/17 11:53:06;;;;;;;2.60;2.40;;;22.70;55.60;;;;;;5011151;28;20494;-72
2022/04/17 11:55:35;;;;;;;2.37;2.10;;;23.50;54.40;;;;;;5011070;28;20465;-73
2022/04/17 11:58:03;;;;;;;3.87;1.80;;;24.50;51.60;;;;;;5010213;28;21019;-73
2022/04/17 12:00:30;;;;;;;2.10;1.70;;;24.80;51.60;;;;;;5011110;28;20476;-73
2022/04/17 12:02:59;;;;;;;2.47;2.20;;;25.00;52.40;;;;;;5010922;28;20583;-73
2022/04/17 12:05:27;;;;;;;2.47;2.27;;;24.60;52.90;;;;;;5011026;28;20465;-73
2022/04/17 12:08:01;;;;;;;2.90;2.00;;;24.80;54.30;;;;;;5011005;28;20488;-73
2022/04/17 12:10:29;;;;;;;2.50;1.83;;;24.90;52.10;;;;;;5010867;28;20473;-73
2022/04/17 12:12:56;;;;;;;2.30;1.90;;;24.30;52.90;;;;;;5011163;28;20457;-73
2022/04/17 12:15:23;;;;;;;1.93;1.73;;;24.40;51.90;;;;;;5011039;28;20488;-73
2022/04/17 12:17:59;;;;;;;2.60;2.00;;;24.90;52.00;;;;;;5010435;28;20485;-73
2022/04/17 12:20:26;;;;;;;1.93;1.73;;;24.70;53.50;;;;;;5011337;28;20465;-72
2022/04/17 12:22:54;;;;;;;2.63;1.60;;;24.70;51.60;;;;;;5010784;28;20494;-73
2022/04/17 12:25:23;;;;;;;2.13;1.70;;;25.00;52.50;;;;;;5010829;28;20470;-73
2022/04/17 12:27:52;;;;;;;2.90;2.27;;;25.30;52.30;;;;;;5010317;28;20610;-73
2022/04/17 12:30:20;;;;;;;2.40;1.90;;;24.70;53.10;;;;;;5010939;28;20464;-73
2022/04/17 12:32:47;;;;;;;4.13;1.97;;;24.30;52.10;;;;;;5010569;28;20489;-73
2022/04/17 12:35:22;;;;;;;1.90;1.80;;;24.60;51.50;;;;;;5010845;28;20484;-73
2022/04/17 12:37:49;;;;;;;2.43;1.93;;;24.90;53.80;;;;;;5010429;28;20495;-72
2022/04/17 12:40:20;;;;;;;2.90;2.00;;;25.10;51.50;;;;;;5010369;28;20461;-72
2022/04/17 12:42:49;;;;;;;1.80;1.70;;;25.60;53.00;;;;;;5010511;28;20870;-72
2022/04/17 12:45:24;;;;;;;2.07;1.87;;;25.90;51.00;;;;;;5010803;28;20837;-73
2022/04/17 12:48:02;;;;;;;2.57;1.87;;;25.90;51.40;;;;;;5010298;28;20480;-73
2022/04/17 12:50:28;;;;;;;1.63;1.53;;;25.60;49.30;;;;;;5010858;28;20854;-73
2022/04/17 12:52:56;;;;;;;2.10;1.90;;;25.00;51.60;;;;;;5010474;28;20461;-73
2022/04/17 12:55:31;;;;;;;2.10;1.90;;;25.20;51.10;;;;;;5012134;28;20469;-73
2022/04/17 12:58:00;;;;;;;4.20;1.83;;;25.50;51.40;;;;;;5014079;28;20495;-73
2022/04/17 13:00:28;;;;;;;1.97;1.60;;;25.60;52.30;;;;;;5014714;28;20465;-72
2022/04/17 13:03:11;;;;;;;2.70;1.90;;;25.80;50.80;;;;;;5014092;28;20457;-72
2022/04/17 13:05:39;;;;;;;2.40;2.07;;;25.70;51.50;;;;;;5014334;28;20874;-72
2022/04/17 13:08:06;;;;;;;2.47;2.20;;;25.30;51.50;;;;;;5013087;28;20514;-73
2022/04/17 13:10:33;;;;;;;2.70;1.80;;;25.20;50.70;;;;;;5014250;28;20461;-73